Главная страница
METAR-TAF:

METAR-TAF

Аэропорты :

Каир, Египет

широта: 30-08N, долгота: 031-24E, высота над уровнем моря: 64 м

Текущие метеонаблюдения

Эта сводка был подготовлена 36 минут назад, в 23:30 UTC
Ветер 10 Узел от северный
Температура 25°C
Влажность 74%
Давление 1014 hPa
Видимость 10 км и более
Отдельные облака на высоте 2500 фута

METAR: HECA 212330Z 36010KT 9999 SCT025 25/20 Q1014 NOSIG

Время: 02:06 (00:06 UTC)

Прогноз

Эта сводка был подготовлена 1 час и 6 минут назад, в 23:00 UTC
Прогноз действительный с 22-го 00 UTC до 23-го 06 UTC
Ветер 9 Узел от северный
Видимость 10 км и более
небольшая облачность на высоте 2500 фута
временами
С 21-го 01 UTC до 21-го 06 UTC
Ветер 3 Узел переменных направлений

TAF: HECA 212300Z 2200/2306 01009KT 9999 FEW025 TEMPO 2101/2106 VRB03KT 4000BR NSC

Метеонаблюдения и прогнозы для более 4000 аэропортов (сводки METAR и TAF).

Имеющиеся станции представлены на карте желтыми и красными точками.

Чтобы увидеть название станции, наведите на нее мышь.

Затем щелкните, чтобы увидеть метеонаблюдения и метеопрогнозы.

Управление картой: чтобы увеличить масштаб, щелкните зеленые кнопки с черным крестиком; чтобы уменьшить масштаб, щелкните зеленую кнопку с тире; для просмотра соседних карт щелкайте зеленые стрелки.


METAR-TAF: